Buoy 54955

sailwx.info

Track history (hours):
 
Tides and Currents Weather Stations Pressure Air Temp Water Temp Dewpoint Dewpoint Depression Visibility Wind Speed Wind Dir Waves Ship Positions

Luruyu54955

Last reported at 2016-Sep-26 19:00 UTC. Time now 2016-Sep-27 00:14 UTC.
Position S 36°37' W 148°51'.

Length 27 m.

Type: Fishing. MMSI: 412330945.

Barometer 1014.9 mb
Water temperature 14.2 ° C

Date/timePositionNaut miles runAvg speedWind from/ knotsBaromVisibWave heightAir tempDewpointWater temp
2016-Sep-26 19:00S 36°37' W 148°51'0 0.3 1014.9 14.2
2016-Sep-26 18:00S 36°37' W 148°51'0 0.2 1014.7 14.2
2016-Sep-26 17:00S 36°37' W 148°51'2 2.2 1014.1 14.1
2016-Sep-26 16:00S 36°36' W 148°54'0 0.0 1013.5 14.1
2016-Sep-26 15:00S 36°36' W 148°54'1 0.9 1012.8 14.1
2016-Sep-26 14:00S 36°37' W 148°53'0 0.1 1012.0 14.0
2016-Sep-26 12:00S 36°37' W 148°52'2 0.4 1011.9 14.0
2016-Sep-26 08:00S 36°36' W 148°54'1 0.6 1011.4 13.8
2016-Sep-26 06:00S 36°36' W 148°56'0 0.0 1011.0 13.8
2016-Sep-26 05:00S 36°36' W 148°56'1 0.7 1010.4 13.8
2016-Sep-26 03:00S 36°36' W 148°57'1 1.1 1009.1 13.9
2016-Sep-26 02:00S 36°36' W 148°59'0 0.0 1008.6 13.9
2016-Sep-26 01:00S 36°36' W 148°59'2 1.2 1008.3 13.9
2016-Sep-25 23:00S 36°35' W 149°01'0 0.0 1008.5 13.9
2016-Sep-25 20:00S 36°34' W 149°01'1 0.6 1009.1 13.9
2016-Sep-25 18:00S 36°34' W 149°02'1 0.5 1008.9 13.8
2016-Sep-25 16:00S 36°33' W 149°03'1 1.3 1007.8 13.9
2016-Sep-25 15:00S 36°33' W 149°05'0 0.0 1007.2 13.9
2016-Sep-25 14:00S 36°33' W 149°05'0 0.0 1006.8 13.9
2016-Sep-25 13:00S 36°33' W 149°05'0 0.2 1006.4 13.9
2016-Sep-25 12:00S 36°33' W 149°05'2 2.4 1006.6 13.9
2016-Sep-25 11:00S 36°31' W 149°07'1 0.2 1006.8 13.9
2016-Sep-25 07:00S 36°31' W 149°08'0 0.0 1005.7 13.9
2016-Sep-25 06:00S 36°31' W 149°08'1 1.4 1005.1 13.9
2016-Sep-25 05:00S 36°32' W 149°10'0 0.3 1004.2 14.0
2016-Sep-25 04:00S 36°32' W 149°10'0 0.0 1003.3 14.0
2016-Sep-25 03:00S 36°32' W 149°10'1 1.2 1002.6 14.0
2016-Sep-25 02:00S 36°31' W 149°11'2 1.6 1001.9 14.0
2016-Sep-25 01:00S 36°32' W 149°13'0 0.0 1001.2 14.0
2016-Sep-24 23:00S 36°32' W 149°13'4 0.6 1000.9 14.0
2016-Sep-24 17:00S 36°29' W 149°16'2 1.5 1002.4 13.9
2016-Sep-24 16:00S 36°29' W 149°18'1 0.7 1002.1 13.9
2016-Sep-24 15:00S 36°29' W 149°17'1 1.2 1002.3 13.9
2016-Sep-24 14:00S 36°28' W 149°18'1 0.4 1002.5 13.9
2016-Sep-24 12:00S 36°27' W 149°18'3 0.6 1003.9 13.9
2016-Sep-24 07:00S 36°24' W 149°17'2 1.0 1009.1 14.1
2016-Sep-24 05:00S 36°22' W 149°16'0 0.3 1009.4 14.2
2016-Sep-24 04:00S 36°22' W 149°16'1 0.7 1009.5 14.3
2016-Sep-24 03:00S 36°21' W 149°16'3 0.4 1010.1 14.4
2016-Sep-23 19:00S 36°19' W 149°14'1 0.9 1015.5 14.1
2016-Sep-23 18:00S 36°18' W 149°14'1 1.5 1016.0 14.1
2016-Sep-23 17:00S 36°18' W 149°12'1 0.9 1015.9 14.1
2016-Sep-23 16:00S 36°18' W 149°12'1 0.7 1016.1 14.1
2016-Sep-23 15:00S 36°17' W 149°12'4 0.6 1015.7 14.1
2016-Sep-23 08:00S 36°14' W 149°09'0 0.0 1018.9 14.3
2016-Sep-23 07:00S 36°14' W 149°09'1 0.9 1019.0 14.3
2016-Sep-23 06:00S 36°13' W 149°08'3 1.1 1019.3 14.3
2016-Sep-23 03:00S 36°12' W 149°05'0 0.0 1020.3 14.4
2016-Sep-23 02:00S 36°12' W 149°05'0 0.4 1020.1 14.4
2016-Sep-23 01:00S 36°12' W 149°05'1 1.1 1020.3 14.4
2016-Sep-23 00:00S 36°11' W 149°05'2 0.3 1020.3 14.4
2016-Sep-22 19:00S 36°10' W 149°04'1 0.5 1023.8 14.4
2016-Sep-22 17:00S 36°10' W 149°03'0 0.4 1023.8 14.4
2016-Sep-22 16:00S 36°10' W 149°03'1 1.1 1023.8 14.4
2016-Sep-22 15:00S 36°10' W 149°02'3 0.4 1023.4 14.4
2016-Sep-22 07:00S 36°08' W 148°60'1 0.6 1026.3 14.5
2016-Sep-22 06:00S 36°08' W 148°59'0 0.1 1026.1 14.5
2016-Sep-22 04:00S 36°08' W 148°59'0 0.5 1025.7 14.4
2016-Sep-22 03:00S 36°08' W 148°58'0 0.3 1025.4 14.4
2016-Sep-22 02:00S 36°07' W 148°58'0 0.3 1024.9 14.5
2016-Sep-22 01:00S 36°07' W 148°58'0 0.0 1025.0 14.5
2016-Sep-22 00:00S 36°07' W 148°58'2 0.4 1025.1 14.5
2016-Sep-21 18:00S 36°06' W 148°56'0 0.5 1026.4 14.4
2016-Sep-21 17:00S 36°07' W 148°55'2 0.4 1025.4 14.5
2016-Sep-21 13:00S 36°06' W 148°53'1 0.3 1023.7 14.5
2016-Sep-21 11:00S 36°06' W 148°53'3 0.7 1023.9 14.6
2016-Sep-21 07:00S 36°06' W 148°50'0 0.5 1022.3 14.8
2016-Sep-21 06:00S 36°05' W 148°50'1 0.6 1021.9 14.8
2016-Sep-21 05:00S 36°06' W 148°49'1 0.9 1021.8 14.8
2016-Sep-21 04:00S 36°06' W 148°48'0 0.2 1020.8 14.9
2016-Sep-21 02:00S 36°06' W 148°48'2 0.3 1019.2 15.0
2016-Sep-20 19:00S 36°06' W 148°45'2 0.8 1018.6 14.9
2016-Sep-20 17:00S 36°07' W 148°44'1 0.7 1017.2 14.8
2016-Sep-20 16:00S 36°07' W 148°45'1 1.3 1016.8 14.9
2016-Sep-20 15:00S 36°08' W 148°44'0 0.2 1016.5 14.9
2016-Sep-20 13:00S 36°08' W 148°44'0 0.1 1016.0 14.9
2016-Sep-20 11:00S 36°08' W 148°44'688414449.4 1016.1 14.9
2016-Sep-20 10:31N 36°51' E 122°45'14 7.2
2016-Sep-20 08:32N 36°49' E 122°28'689512914.3
2016-Sep-20 08:00S 36°08' W 148°45'1 0.5 1016.6 14.9
2016-Sep-20 07:00S 36°08' W 148°44'0 0.2 1016.7 14.9
2016-Sep-20 06:00S 36°07' W 148°44'1 0.3 1017.3 15.0
2016-Sep-20 04:00S 36°07' W 148°44'0 0.0 1016.9 15.3
2016-Sep-20 03:00S 36°07' W 148°44'1 0.7 1015.7 15.6
2016-Sep-20 02:00S 36°07' W 148°43'0 0.0 1015.2 16.0
2016-Sep-20 01:00S 36°07' W 148°43'0 0.3 1015.2 17.0
2016-Sep-20 00:00S 36°07' W 148°42'0 0.0 1015.8 17.3
2016-Sep-19 23:00S 36°07' W 148°42'1 0.3 1016.1 16.9
2016-Sep-19 20:00S 36°06' W 148°42'3 3.3 1017.4 14.9
2016-Sep-19 19:00S 36°07' W 148°38'2 1.9 1016.8 14.6
2016-Sep-19 18:00S 36°07' W 148°40'1 0.4 1016.2 14.5
2016-Sep-19 16:00S 36°08' W 148°40'0 0.2 1015.0 14.5
2016-Sep-19 14:00S 36°07' W 148°40'1 0.4 1014.1 14.5
2016-Sep-19 12:00S 36°08' W 148°41'0 0.0 1013.5 14.5
2016-Sep-19 11:00S 36°08' W 148°41'0 0.0 1013.5 14.6
2016-Sep-19 09:00S 36°08' W 148°41'1 0.6 1013.1 14.6
2016-Sep-19 07:00S 36°08' W 148°42'1 1.4 1012.7 14.7
2016-Sep-19 06:00S 36°07' W 148°41'0 0.2 1012.3 14.7
2016-Sep-19 05:00S 36°08' W 148°41'0 0.2 1012.0 14.7
2016-Sep-19 04:00S 36°08' W 148°41'0 0.0 1011.8 14.8
2016-Sep-19 03:00S 36°08' W 148°41'1 0.6 1011.4 15.0
2016-Sep-19 02:00S 36°08' W 148°40'0 0.0 1010.7 15.2
2016-Sep-19 00:00S 36°08' W 148°40'1 0.2 1009.9 15.0
2016-Sep-18 19:00S 36°09' W 148°41'1 0.4 1010.6 14.4
2016-Sep-18 17:00S 36°08' W 148°41'0 0.3 1011.5 14.4
2016-Sep-18 16:00S 36°08' W 148°41'2 1.7 1012.3 14.3
2016-Sep-18 15:00S 36°07' W 148°40'0 0.0 1012.2 14.3
2016-Sep-18 12:00S 36°07' W 148°40'1 0.4 1014.8 14.3
2016-Sep-18 09:00S 36°05' W 148°41'2 1.6 1017.8 14.5
2016-Sep-18 08:00S 36°04' W 148°40'0 0.0 1018.2 14.5
2016-Sep-18 07:00S 36°04' W 148°40'1 1.1 1018.9 14.5
2016-Sep-18 06:00S 36°04' W 148°38'0 0.4 1019.2 14.5
2016-Sep-18 05:00S 36°04' W 148°38'1 0.5 1020.2 14.5
2016-Sep-18 03:00S 36°03' W 148°38'0 0.0 1021.5 14.5
2016-Sep-18 02:00S 36°03' W 148°38'4 3.7 1022.1 14.5
2016-Sep-18 01:00S 36°02' W 148°34'0 0.0 1022.6 14.5
2016-Sep-18 00:00S 36°02' W 148°34'1 0.1 1023.0 14.5
2016-Sep-17 18:00S 36°01' W 148°34'1 0.6 1027.1 14.5
2016-Sep-17 17:00S 36°01' W 148°33'0 0.2 1027.3 14.5
2016-Sep-17 16:00S 36°01' W 148°33'2 0.5 1027.0 14.6
2016-Sep-17 12:00S 36°00' W 148°31'2 0.4 1027.4 14.6
2016-Sep-17 08:00S 36°00' W 148°29'1 0.5 1029.2 14.6
2016-Sep-17 07:00S 35°60' W 148°29'1 0.8 1029.6 14.6
2016-Sep-17 06:00S 36°00' W 148°28'1 1.3 1029.4 14.6
2016-Sep-17 05:00S 35°60' W 148°26'0 0.0 1029.3 14.6
2016-Sep-17 04:00S 35°60' W 148°26'0 0.3 1028.8 14.6
2016-Sep-17 03:00S 36°00' W 148°26'1 0.4 1029.4 14.6
2016-Sep-17 01:00S 35°60' W 148°25'1 0.2 1029.2 14.7
2016-Sep-16 19:00S 35°59' W 148°24'   1030.9 14.6
Track history (hours):
 
Tides and Currents Weather Stations Pressure Air Temp Water Temp Dewpoint Dewpoint Depression Visibility Wind Speed Wind Dir Waves Ship Positions

Luruyu54955

Last reported at 2016-Sep-26 19:00 UTC. Time now 2016-Sep-27 00:14 UTC.
Position S 36°37' W 148°51'.

Length 27 m.

Type: Fishing. MMSI: 412330945.

Barometer 1014.9 mb
Water temperature 14.2 ° C

Date/timePositionNaut miles runAvg speedWind from/ knotsBaromVisibWave heightAir tempDewpointWater temp
2016-Sep-26 19:00S 36°37' W 148°51'0 0.3 1014.9 14.2
2016-Sep-26 18:00S 36°37' W 148°51'0 0.2 1014.7 14.2
2016-Sep-26 17:00S 36°37' W 148°51'2 2.2 1014.1 14.1
2016-Sep-26 16:00S 36°36' W 148°54'0 0.0 1013.5 14.1
2016-Sep-26 15:00S 36°36' W 148°54'1 0.9 1012.8 14.1
2016-Sep-26 14:00S 36°37' W 148°53'0 0.1 1012.0 14.0
2016-Sep-26 12:00S 36°37' W 148°52'2 0.4 1011.9 14.0
2016-Sep-26 08:00S 36°36' W 148°54'1 0.6 1011.4 13.8
2016-Sep-26 06:00S 36°36' W 148°56'0 0.0 1011.0 13.8
2016-Sep-26 05:00S 36°36' W 148°56'1 0.7 1010.4 13.8
2016-Sep-26 03:00S 36°36' W 148°57'1 1.1 1009.1 13.9
2016-Sep-26 02:00S 36°36' W 148°59'0 0.0 1008.6 13.9
2016-Sep-26 01:00S 36°36' W 148°59'2 1.2 1008.3 13.9
2016-Sep-25 23:00S 36°35' W 149°01'0 0.0 1008.5 13.9
2016-Sep-25 20:00S 36°34' W 149°01'1 0.6 1009.1 13.9
2016-Sep-25 18:00S 36°34' W 149°02'1 0.5 1008.9 13.8
2016-Sep-25 16:00S 36°33' W 149°03'1 1.3 1007.8 13.9
2016-Sep-25 15:00S 36°33' W 149°05'0 0.0 1007.2 13.9
2016-Sep-25 14:00S 36°33' W 149°05'0 0.0 1006.8 13.9
2016-Sep-25 13:00S 36°33' W 149°05'0 0.2 1006.4 13.9
2016-Sep-25 12:00S 36°33' W 149°05'2 2.4 1006.6 13.9
2016-Sep-25 11:00S 36°31' W 149°07'1 0.2 1006.8 13.9
2016-Sep-25 07:00S 36°31' W 149°08'0 0.0 1005.7 13.9
2016-Sep-25 06:00S 36°31' W 149°08'1 1.4 1005.1 13.9
2016-Sep-25 05:00S 36°32' W 149°10'0 0.3 1004.2 14.0
2016-Sep-25 04:00S 36°32' W 149°10'0 0.0 1003.3 14.0
2016-Sep-25 03:00S 36°32' W 149°10'1 1.2 1002.6 14.0
2016-Sep-25 02:00S 36°31' W 149°11'2 1.6 1001.9 14.0
2016-Sep-25 01:00S 36°32' W 149°13'0 0.0 1001.2 14.0
2016-Sep-24 23:00S 36°32' W 149°13'4 0.6 1000.9 14.0
2016-Sep-24 17:00S 36°29' W 149°16'2 1.5 1002.4 13.9
2016-Sep-24 16:00S 36°29' W 149°18'1 0.7 1002.1 13.9
2016-Sep-24 15:00S 36°29' W 149°17'1 1.2 1002.3 13.9
2016-Sep-24 14:00S 36°28' W 149°18'1 0.4 1002.5 13.9
2016-Sep-24 12:00S 36°27' W 149°18'3 0.6 1003.9 13.9
2016-Sep-24 07:00S 36°24' W 149°17'2 1.0 1009.1 14.1
2016-Sep-24 05:00S 36°22' W 149°16'0 0.3 1009.4 14.2
2016-Sep-24 04:00S 36°22' W 149°16'1 0.7 1009.5 14.3
2016-Sep-24 03:00S 36°21' W 149°16'3 0.4 1010.1 14.4
2016-Sep-23 19:00S 36°19' W 149°14'1 0.9 1015.5 14.1
2016-Sep-23 18:00S 36°18' W 149°14'1 1.5 1016.0 14.1
2016-Sep-23 17:00S 36°18' W 149°12'1 0.9 1015.9 14.1
2016-Sep-23 16:00S 36°18' W 149°12'1 0.7 1016.1 14.1
2016-Sep-23 15:00S 36°17' W 149°12'4 0.6 1015.7 14.1
2016-Sep-23 08:00S 36°14' W 149°09'0 0.0 1018.9 14.3
2016-Sep-23 07:00S 36°14' W 149°09'1 0.9 1019.0 14.3
2016-Sep-23 06:00S 36°13' W 149°08'3 1.1 1019.3 14.3
2016-Sep-23 03:00S 36°12' W 149°05'0 0.0 1020.3 14.4
2016-Sep-23 02:00S 36°12' W 149°05'0 0.4 1020.1 14.4
2016-Sep-23 01:00S 36°12' W 149°05'1 1.1 1020.3 14.4
2016-Sep-23 00:00S 36°11' W 149°05'2 0.3 1020.3 14.4
2016-Sep-22 19:00S 36°10' W 149°04'1 0.5 1023.8 14.4
2016-Sep-22 17:00S 36°10' W 149°03'0 0.4 1023.8 14.4
2016-Sep-22 16:00S 36°10' W 149°03'1 1.1 1023.8 14.4
2016-Sep-22 15:00S 36°10' W 149°02'3 0.4 1023.4 14.4
2016-Sep-22 07:00S 36°08' W 148°60'1 0.6 1026.3 14.5
2016-Sep-22 06:00S 36°08' W 148°59'0 0.1 1026.1 14.5
2016-Sep-22 04:00S 36°08' W 148°59'0 0.5 1025.7 14.4
2016-Sep-22 03:00S 36°08' W 148°58'0 0.3 1025.4 14.4
2016-Sep-22 02:00S 36°07' W 148°58'0 0.3 1024.9 14.5
2016-Sep-22 01:00S 36°07' W 148°58'0 0.0 1025.0 14.5
2016-Sep-22 00:00S 36°07' W 148°58'2 0.4 1025.1 14.5
2016-Sep-21 18:00S 36°06' W 148°56'0 0.5 1026.4 14.4
2016-Sep-21 17:00S 36°07' W 148°55'2 0.4 1025.4 14.5
2016-Sep-21 13:00S 36°06' W 148°53'1 0.3 1023.7 14.5
2016-Sep-21 11:00S 36°06' W 148°53'3 0.7 1023.9 14.6
2016-Sep-21 07:00S 36°06' W 148°50'0 0.5 1022.3 14.8
2016-Sep-21 06:00S 36°05' W 148°50'1 0.6 1021.9 14.8
2016-Sep-21 05:00S 36°06' W 148°49'1 0.9 1021.8 14.8
2016-Sep-21 04:00S 36°06' W 148°48'0 0.2 1020.8 14.9
2016-Sep-21 02:00S 36°06' W 148°48'2 0.3 1019.2 15.0
2016-Sep-20 19:00S 36°06' W 148°45'2 0.8 1018.6 14.9
2016-Sep-20 17:00S 36°07' W 148°44'1 0.7 1017.2 14.8
2016-Sep-20 16:00S 36°07' W 148°45'1 1.3 1016.8 14.9
2016-Sep-20 15:00S 36°08' W 148°44'0 0.2 1016.5 14.9
2016-Sep-20 13:00S 36°08' W 148°44'0 0.1 1016.0 14.9
2016-Sep-20 11:00S 36°08' W 148°44'688414449.4 1016.1 14.9
2016-Sep-20 10:31N 36°51' E 122°45'14 7.2
2016-Sep-20 08:32N 36°49' E 122°28'689512914.3
2016-Sep-20 08:00S 36°08' W 148°45'1 0.5 1016.6 14.9
2016-Sep-20 07:00S 36°08' W 148°44'0 0.2 1016.7 14.9
2016-Sep-20 06:00S 36°07' W 148°44'1 0.3 1017.3 15.0
2016-Sep-20 04:00S 36°07' W 148°44'0 0.0 1016.9 15.3
2016-Sep-20 03:00S 36°07' W 148°44'1 0.7 1015.7 15.6
2016-Sep-20 02:00S 36°07' W 148°43'0 0.0 1015.2 16.0
2016-Sep-20 01:00S 36°07' W 148°43'0 0.3 1015.2 17.0
2016-Sep-20 00:00S 36°07' W 148°42'0 0.0 1015.8 17.3
2016-Sep-19 23:00S 36°07' W 148°42'1 0.3 1016.1 16.9
2016-Sep-19 20:00S 36°06' W 148°42'3 3.3 1017.4 14.9
2016-Sep-19 19:00S 36°07' W 148°38'2 1.9 1016.8 14.6
2016-Sep-19 18:00S 36°07' W 148°40'1 0.4 1016.2 14.5
2016-Sep-19 16:00S 36°08' W 148°40'0 0.2 1015.0 14.5
2016-Sep-19 14:00S 36°07' W 148°40'1 0.4 1014.1 14.5
2016-Sep-19 12:00S 36°08' W 148°41'0 0.0 1013.5 14.5
2016-Sep-19 11:00S 36°08' W 148°41'0 0.0 1013.5 14.6
2016-Sep-19 09:00S 36°08' W 148°41'1 0.6 1013.1 14.6
2016-Sep-19 07:00S 36°08' W 148°42'1 1.4 1012.7 14.7
2016-Sep-19 06:00S 36°07' W 148°41'0 0.2 1012.3 14.7
2016-Sep-19 05:00S 36°08' W 148°41'0 0.2 1012.0 14.7
2016-Sep-19 04:00S 36°08' W 148°41'0 0.0 1011.8 14.8
2016-Sep-19 03:00S 36°08' W 148°41'1 0.6 1011.4 15.0
2016-Sep-19 02:00S 36°08' W 148°40'0 0.0 1010.7 15.2
2016-Sep-19 00:00S 36°08' W 148°40'1 0.2 1009.9 15.0
2016-Sep-18 19:00S 36°09' W 148°41'1 0.4 1010.6 14.4
2016-Sep-18 17:00S 36°08' W 148°41'0 0.3 1011.5 14.4
2016-Sep-18 16:00S 36°08' W 148°41'2 1.7 1012.3 14.3
2016-Sep-18 15:00S 36°07' W 148°40'0 0.0 1012.2 14.3
2016-Sep-18 12:00S 36°07' W 148°40'1 0.4 1014.8 14.3
2016-Sep-18 09:00S 36°05' W 148°41'2 1.6 1017.8 14.5
2016-Sep-18 08:00S 36°04' W 148°40'0 0.0 1018.2 14.5
2016-Sep-18 07:00S 36°04' W 148°40'1 1.1 1018.9 14.5
2016-Sep-18 06:00S 36°04' W 148°38'0 0.4 1019.2 14.5
2016-Sep-18 05:00S 36°04' W 148°38'1 0.5 1020.2 14.5
2016-Sep-18 03:00S 36°03' W 148°38'0 0.0 1021.5 14.5
2016-Sep-18 02:00S 36°03' W 148°38'4 3.7 1022.1 14.5
2016-Sep-18 01:00S 36°02' W 148°34'0 0.0 1022.6 14.5
2016-Sep-18 00:00S 36°02' W 148°34'1 0.1 1023.0 14.5
2016-Sep-17 18:00S 36°01' W 148°34'1 0.6 1027.1 14.5
2016-Sep-17 17:00S 36°01' W 148°33'0 0.2 1027.3 14.5
2016-Sep-17 16:00S 36°01' W 148°33'2 0.5 1027.0 14.6
2016-Sep-17 12:00S 36°00' W 148°31'2 0.4 1027.4 14.6
2016-Sep-17 08:00S 36°00' W 148°29'1 0.5 1029.2 14.6
2016-Sep-17 07:00S 35°60' W 148°29'1 0.8 1029.6 14.6
2016-Sep-17 06:00S 36°00' W 148°28'1 1.3 1029.4 14.6
2016-Sep-17 05:00S 35°60' W 148°26'0 0.0 1029.3 14.6
2016-Sep-17 04:00S 35°60' W 148°26'0 0.3 1028.8 14.6
2016-Sep-17 03:00S 36°00' W 148°26'1 0.4 1029.4 14.6
2016-Sep-17 01:00S 35°60' W 148°25'1 0.2 1029.2 14.7
2016-Sep-16 19:00S 35°59' W 148°24'   1030.9 14.6

Dump ship's entire track history